Terminal Aerodrome Forecast
Issued by NWS Charleston, WV

Current Version | Previous Version | Graphics & Text | Print | Product List | Glossary Off
Versions: 1 2 3 4 5 6 7 8 9 10 11 12 13 14 15 16 17 18 19 20 21 22

000
FTUS41 KRLX 242300
TAFBKW
TAF
KBKW 242340Z 2500/2524 10005KT P6SM BKN250
     FM250300 16009KT P6SM BKN150
     FM251000 16012G19KT P6SM BKN130
     FM251300 18013G21KT 5SM -SHRA OVC040
     FM251600 20013G22KT 3SM -SHRA VCTS OVC025CB
     FM252100 25015G26KT 6SM -SHRA BKN025=

USA.gov is the U.S. government's official web portal to all federal, state and local government web resources and services.